createdAt,value
2022-09-11T00:01:33.486Z,1.50
2022-09-11T00:04:02.427Z,1.47
2022-09-11T00:06:31.146Z,1.57
2022-09-11T00:09:01.860Z,1.50
2022-09-11T00:11:33.575Z,1.87
2022-09-11T00:14:01.261Z,1.90
2022-09-11T00:16:34.907Z,1.50
2022-09-11T00:19:16.431Z,1.40
2022-09-11T00:21:43.641Z,1.60
2022-09-11T00:24:10.617Z,1.40
2022-09-11T00:26:39.038Z,1.73
2022-09-11T00:29:06.185Z,1.50
2022-09-11T00:31:33.322Z,1.40
2022-09-11T00:34:00.325Z,1.20
2022-09-11T00:36:31.799Z,1.63
2022-09-11T00:38:59.955Z,1.50
2022-09-11T00:41:32.236Z,1.60
2022-09-11T00:44:28.455Z,1.47
2022-09-11T00:47:00.767Z,1.57
2022-09-11T00:49:32.877Z,1.50
2022-09-11T00:52:14.887Z,1.20
2022-09-11T00:54:58.087Z,1.40
2022-09-11T00:57:29.771Z,1.50
2022-09-11T00:59:59.778Z,1.50
2022-09-11T01:02:29.773Z,1.47
2022-09-11T01:04:59.727Z,1.77
2022-09-11T01:07:29.486Z,1.40
2022-09-11T01:09:59.376Z,1.40
2022-09-11T01:12:52.446Z,1.40
2022-09-11T01:16:06.139Z,1.43
2022-09-11T01:19:01.776Z,1.60
2022-09-11T01:21:47.236Z,1.53
2022-09-11T01:24:29.453Z,1.70
2022-09-11T01:27:04.417Z,1.23
2022-09-11T01:30:11.515Z,1.30
2022-09-11T01:33:23.294Z,1.20
2022-09-11T01:36:21.769Z,1.37
2022-09-11T01:38:55.951Z,1.50
2022-09-11T01:41:53.926Z,1.70
2022-09-11T01:44:30.761Z,1.50
2022-09-11T01:46:59.116Z,1.90
2022-09-11T01:49:52.396Z,1.47
2022-09-11T01:52:31.339Z,1.50
2022-09-11T01:55:06.196Z,1.50
2022-09-11T01:57:44.467Z,1.93
2022-09-11T02:00:14.106Z,1.27
2022-09-11T02:02:52.607Z,1.70
2022-09-11T02:05:48.652Z,1.37
2022-09-11T02:08:30.942Z,1.47
2022-09-11T02:11:09.257Z,1.40
2022-09-11T02:13:49.106Z,1.50
2022-09-11T02:16:32.014Z,1.60
2022-09-11T02:19:06.566Z,1.10
2022-09-11T02:21:34.746Z,1.30
2022-09-11T02:24:02.857Z,1.60
2022-09-11T02:26:34.731Z,1.40
2022-09-11T02:29:01.966Z,1.60
2022-09-11T02:31:29.075Z,1.23
2022-09-11T02:33:56.010Z,1.57
2022-09-11T02:37:00.486Z,1.30
2022-09-11T02:40:07.393Z,1.50
2022-09-11T02:43:22.907Z,1.80
2022-09-11T02:46:12.412Z,1.50
2022-09-11T02:49:08.020Z,1.30
2022-09-11T02:51:48.442Z,1.50
2022-09-11T02:54:53.336Z,1.30
2022-09-11T02:57:37.356Z,1.47
2022-09-11T03:00:08.542Z,1.33
2022-09-11T03:02:40.102Z,1.53
2022-09-11T03:05:09.042Z,1.43
2022-09-11T03:07:36.114Z,1.60
2022-09-11T03:10:03.687Z,1.70
2022-09-11T03:12:30.652Z,1.50
2022-09-11T03:14:57.838Z,1.30
2022-09-11T03:17:25.582Z,1.60
2022-09-11T03:19:52.597Z,1.50
2022-09-11T03:22:19.822Z,1.73
2022-09-11T03:24:46.761Z,1.77
2022-09-11T03:27:14.221Z,1.50
2022-09-11T03:29:41.501Z,1.20
2022-09-11T03:32:08.836Z,1.33
2022-09-11T03:34:35.801Z,1.40
2022-09-11T03:37:02.711Z,1.30
2022-09-11T03:39:29.696Z,1.60
2022-09-11T03:41:56.849Z,1.60
2022-09-11T03:44:23.787Z,1.50
2022-09-11T03:46:50.797Z,1.27
2022-09-11T03:49:17.752Z,1.33
2022-09-11T03:51:44.656Z,1.27
2022-09-11T03:54:11.602Z,1.30
2022-09-11T03:56:38.516Z,1.47
2022-09-11T03:59:05.502Z,1.20
2022-09-11T04:01:32.577Z,1.40
2022-09-11T04:04:00.562Z,1.60
2022-09-11T04:06:27.856Z,1.27
2022-09-11T04:08:54.960Z,1.47
2022-09-11T04:11:22.716Z,1.20
2022-09-11T04:13:51.366Z,1.40
2022-09-11T04:16:20.339Z,1.37
2022-09-11T04:18:49.696Z,1.00
2022-09-11T04:21:19.319Z,1.17
2022-09-11T04:23:53.667Z,1.20
2022-09-11T04:26:23.617Z,1.10
2022-09-11T04:28:51.593Z,1.00
2022-09-11T04:31:21.511Z,2.10
2022-09-11T04:33:49.216Z,1.50
2022-09-11T04:36:19.401Z,1.37
2022-09-11T04:38:48.896Z,1.97
2022-09-11T04:41:16.805Z,1.60
2022-09-11T04:43:44.067Z,1.40
2022-09-11T04:46:17.737Z,1.80
2022-09-11T04:48:56.181Z,1.30
2022-09-11T04:51:32.721Z,1.27
2022-09-11T04:54:01.527Z,1.33
2022-09-11T04:56:32.753Z,1.30
2022-09-11T04:59:03.841Z,1.40
2022-09-11T05:01:34.309Z,1.63
2022-09-11T05:04:02.064Z,1.50
2022-09-11T05:06:31.081Z,1.30
2022-09-11T05:09:04.739Z,1.77
2022-09-11T05:11:32.306Z,1.20
2022-09-11T05:13:59.357Z,1.37
2022-09-11T05:16:29.195Z,1.63
2022-09-11T05:18:57.609Z,1.17
2022-09-11T05:21:26.907Z,1.33
2022-09-11T05:23:57.166Z,1.20
2022-09-11T05:26:33.627Z,1.13
2022-09-11T05:29:04.561Z,1.13
2022-09-11T05:31:32.412Z,1.20
2022-09-11T05:34:00.757Z,1.40
2022-09-11T05:36:28.605Z,1.63
2022-09-11T05:38:55.533Z,1.60
2022-09-11T05:41:23.175Z,1.40
2022-09-11T05:43:51.728Z,1.57
2022-09-11T05:46:22.606Z,1.50
2022-09-11T05:48:49.542Z,1.30
2022-09-11T05:51:21.770Z,1.73
2022-09-11T05:53:53.921Z,1.17
2022-09-11T05:56:24.131Z,1.33
2022-09-11T05:58:51.927Z,1.40
2022-09-11T06:01:27.770Z,1.40
2022-09-11T06:03:55.392Z,1.40
2022-09-11T06:06:23.982Z,1.77
2022-09-11T06:08:53.113Z,1.77
2022-09-11T06:11:22.125Z,1.60
2022-09-11T06:13:50.309Z,1.30
2022-09-11T06:16:22.534Z,1.20
2022-09-11T06:18:53.415Z,1.70
2022-09-11T06:21:24.812Z,1.30
2022-09-11T06:23:53.541Z,1.20
2022-09-11T06:26:24.477Z,1.20
2022-09-11T06:28:53.401Z,1.13
2022-09-11T06:31:24.521Z,1.03
2022-09-11T06:33:52.058Z,1.50
2022-09-11T06:36:30.127Z,1.20
2022-09-11T06:38:59.122Z,1.20
2022-09-11T06:41:27.458Z,1.43
2022-09-11T06:43:54.482Z,1.30
2022-09-11T06:46:24.821Z,1.30
2022-09-11T06:48:53.006Z,1.30
2022-09-11T06:51:23.585Z,1.20
2022-09-11T06:53:58.237Z,1.20
2022-09-11T06:56:25.511Z,1.53
2022-09-11T06:58:53.112Z,1.30
2022-09-11T07:01:22.538Z,1.50
2022-09-11T07:03:53.281Z,1.30
2022-09-11T07:06:25.402Z,1.23
2022-09-11T07:08:56.994Z,1.10
2022-09-11T07:11:24.321Z,1.10
2022-09-11T07:13:51.267Z,1.40
2022-09-11T07:16:18.311Z,1.30
2022-09-11T07:18:47.896Z,1.60
2022-09-11T07:21:22.161Z,1.50
2022-09-11T07:23:57.481Z,1.10
2022-09-11T07:26:27.722Z,1.40
2022-09-11T07:28:56.175Z,1.20
2022-09-11T07:31:29.388Z,1.40
2022-09-11T07:33:57.309Z,1.30
2022-09-11T07:36:31.053Z,1.40
2022-09-11T07:38:59.476Z,1.20
2022-09-11T07:41:41.506Z,1.27
2022-09-11T07:44:09.501Z,1.27
2022-09-11T07:46:36.475Z,1.30
2022-09-11T07:49:04.009Z,1.00
2022-09-11T07:51:31.081Z,1.37
2022-09-11T07:53:59.766Z,1.47
2022-09-11T07:56:29.044Z,1.33
2022-09-11T07:58:56.654Z,1.20
2022-09-11T08:01:27.609Z,1.50
2022-09-11T08:04:04.134Z,1.80
2022-09-11T08:06:35.675Z,1.20
2022-09-11T08:09:08.088Z,1.40
2022-09-11T08:11:48.953Z,1.60
2022-09-11T08:14:17.928Z,1.50
2022-09-11T08:16:45.399Z,1.90
2022-09-11T08:19:19.954Z,1.70
2022-09-11T08:21:48.088Z,1.70
2022-09-11T08:24:20.565Z,1.33
2022-09-11T08:26:49.095Z,2.00
2022-09-11T08:29:17.509Z,2.00
2022-09-11T08:31:45.534Z,2.60
2022-09-11T08:34:12.749Z,2.90
2022-09-11T08:36:40.264Z,2.33
2022-09-11T08:39:09.087Z,1.90
2022-09-11T08:41:49.050Z,1.80
2022-09-11T08:44:27.985Z,1.93
2022-09-11T08:47:06.649Z,2.20
2022-09-11T08:49:43.460Z,1.90
2022-09-11T08:52:14.944Z,2.37
2022-09-11T08:54:43.710Z,2.50
2022-09-11T08:57:22.756Z,2.00
2022-09-11T09:00:10.892Z,2.17
2022-09-11T09:03:10.090Z,2.43
2022-09-11T09:05:57.309Z,1.87
2022-09-11T09:08:50.248Z,2.10
2022-09-11T09:11:47.489Z,1.83
2022-09-11T09:14:24.390Z,1.80
2022-09-11T09:17:19.604Z,1.90
2022-09-11T09:19:56.990Z,2.60
2022-09-11T09:22:43.914Z,1.90
2022-09-11T09:25:16.145Z,1.90
2022-09-11T09:27:49.831Z,2.20
2022-09-11T09:30:24.735Z,1.90
2022-09-11T09:32:59.123Z,2.50
2022-09-11T09:35:39.734Z,2.87
2022-09-11T09:38:14.679Z,2.50
2022-09-11T09:41:13.690Z,3.20
2022-09-11T09:44:06.024Z,2.43
2022-09-11T09:46:43.991Z,2.93
2022-09-11T09:49:28.611Z,3.00
2022-09-11T09:52:04.575Z,2.33
2022-09-11T09:54:36.631Z,2.40
2022-09-11T09:57:11.046Z,2.50
2022-09-11T09:59:46.244Z,2.57
2022-09-11T10:02:13.802Z,2.20
2022-09-11T10:04:40.872Z,2.37
2022-09-11T10:07:15.235Z,2.70
2022-09-11T10:09:48.742Z,2.20
2022-09-11T10:12:22.272Z,2.47
2022-09-11T10:15:03.507Z,2.20
2022-09-11T10:17:36.964Z,1.87
2022-09-11T10:20:16.123Z,2.30
2022-09-11T10:22:43.609Z,2.40
2022-09-11T10:25:15.847Z,2.47
2022-09-11T10:27:56.520Z,2.93
2022-09-11T10:30:39.248Z,2.90
2022-09-11T10:33:39.626Z,2.70
2022-09-11T10:36:10.312Z,2.47
2022-09-11T10:38:45.085Z,3.30
2022-09-11T10:41:19.339Z,2.70
2022-09-11T10:44:02.464Z,2.83
2022-09-11T10:46:43.044Z,2.20
2022-09-11T10:49:22.107Z,2.50
2022-09-11T10:52:03.344Z,2.17
2022-09-11T10:54:39.145Z,2.03
2022-09-11T10:57:33.683Z,1.97
2022-09-11T11:00:24.381Z,2.07
2022-09-11T11:03:25.994Z,2.57
2022-09-11T11:06:23.802Z,2.10
2022-09-11T11:09:32.156Z,2.30
2022-09-11T11:12:23.590Z,2.20
2022-09-11T11:15:31.179Z,2.10
2022-09-11T11:18:23.216Z,3.10
2022-09-11T11:21:07.627Z,2.83
2022-09-11T11:24:08.429Z,2.90
2022-09-11T11:27:05.451Z,2.37
2022-09-11T11:30:15.487Z,2.80
2022-09-11T11:32:55.179Z,2.50
2022-09-11T11:35:27.897Z,2.60
2022-09-11T11:38:22.417Z,2.30
2022-09-11T11:41:19.677Z,2.30
2022-09-11T11:43:50.530Z,2.27
2022-09-11T11:46:27.888Z,2.00
2022-09-11T11:49:03.037Z,2.07
2022-09-11T11:51:52.817Z,1.53
2022-09-11T11:54:25.028Z,1.60
2022-09-11T11:56:57.439Z,2.10
2022-09-11T11:59:57.461Z,1.70
2022-09-11T12:02:36.087Z,1.70
2022-09-11T12:05:17.469Z,1.60
2022-09-11T12:07:47.517Z,1.70
2022-09-11T12:10:33.648Z,1.37
2022-09-11T12:13:14.017Z,1.53
2022-09-11T12:16:06.501Z,1.30
2022-09-11T12:18:38.127Z,1.30
2022-09-11T12:21:23.018Z,1.30
2022-09-11T12:23:49.938Z,1.47
2022-09-11T12:26:27.507Z,1.43
2022-09-11T12:29:13.328Z,1.43
2022-09-11T12:32:03.468Z,1.50
2022-09-11T12:34:39.157Z,1.30
2022-09-11T12:37:14.798Z,1.00
2022-09-11T12:40:32.749Z,1.10
2022-09-11T12:43:30.328Z,0.90
2022-09-11T12:45:57.612Z,0.83
2022-09-11T12:48:44.453Z,1.10
2022-09-11T12:51:36.427Z,1.10
2022-09-11T12:54:25.077Z,0.90
2022-09-11T12:57:28.312Z,0.97
2022-09-11T13:00:12.049Z,1.07
2022-09-11T13:02:43.448Z,1.10
2022-09-11T13:05:30.023Z,1.10
2022-09-11T13:08:04.337Z,1.00
2022-09-11T13:10:36.910Z,1.30
2022-09-11T13:13:27.048Z,1.20
2022-09-11T13:15:57.548Z,1.37
2022-09-11T13:18:34.528Z,1.57
2022-09-11T13:21:15.301Z,1.07
2022-09-11T13:23:43.244Z,1.53
2022-09-11T13:26:25.867Z,1.40
2022-09-11T13:28:58.118Z,1.57
2022-09-11T13:31:36.637Z,1.50
2022-09-11T13:34:13.037Z,1.37
2022-09-11T13:36:41.278Z,1.60
2022-09-11T13:39:09.747Z,1.40
2022-09-11T13:41:42.367Z,1.30
2022-09-11T13:44:24.008Z,1.40
2022-09-11T13:46:52.720Z,1.13
2022-09-11T13:49:37.622Z,1.20
2022-09-11T13:52:11.078Z,0.80
2022-09-11T13:54:45.888Z,0.97
2022-09-11T13:57:16.768Z,1.20
2022-09-11T13:59:44.757Z,0.80
2022-09-11T14:02:31.233Z,1.30
2022-09-11T14:05:07.516Z,1.00
2022-09-11T14:07:52.584Z,0.90
2022-09-11T14:10:31.477Z,0.90
2022-09-11T14:13:14.196Z,1.03
2022-09-11T14:15:50.045Z,1.10
2022-09-11T14:18:29.632Z,1.03
2022-09-11T14:21:01.012Z,1.20
2022-09-11T14:23:30.140Z,1.00
2022-09-11T14:26:04.590Z,1.30
2022-09-11T14:28:43.142Z,1.10
2022-09-11T14:31:15.410Z,1.10
2022-09-11T14:33:42.379Z,0.80
2022-09-11T14:36:20.501Z,1.10
2022-09-11T14:38:48.661Z,1.10
2022-09-11T14:41:15.627Z,1.10
2022-09-11T14:43:44.084Z,1.10
2022-09-11T14:46:13.541Z,1.20
2022-09-11T14:48:43.198Z,1.33
2022-09-11T14:51:13.748Z,1.20
2022-09-11T14:53:43.718Z,1.50
2022-09-11T14:56:11.009Z,1.30
2022-09-11T14:58:38.462Z,1.33
2022-09-11T15:01:05.527Z,1.50
2022-09-11T15:03:32.528Z,1.30
2022-09-11T15:05:59.427Z,1.60
2022-09-11T15:08:26.581Z,1.50
2022-09-11T15:10:53.853Z,1.50
2022-09-11T15:13:21.972Z,1.50
2022-09-11T15:15:49.182Z,1.37
2022-09-11T15:18:18.162Z,1.60
2022-09-11T15:20:45.775Z,1.50
2022-09-11T15:23:12.696Z,1.50
2022-09-11T15:25:39.572Z,1.80
2022-09-11T15:28:10.287Z,1.90
2022-09-11T15:30:39.201Z,1.80
2022-09-11T15:33:06.311Z,1.70
2022-09-11T15:35:33.395Z,1.20
2022-09-11T15:38:00.426Z,0.90
2022-09-11T15:40:27.417Z,1.27
2022-09-11T15:42:56.929Z,0.90
2022-09-11T15:45:24.153Z,1.03
2022-09-11T15:47:51.221Z,1.33
2022-09-11T15:50:20.227Z,1.30
2022-09-11T15:52:47.436Z,1.10
2022-09-11T15:55:14.503Z,1.07
2022-09-11T15:57:41.482Z,1.10
2022-09-11T16:00:09.761Z,1.40
2022-09-11T16:02:36.676Z,3.70
2022-09-11T16:05:03.861Z,1.97
2022-09-11T16:07:30.781Z,2.10
2022-09-11T16:09:59.066Z,2.53
2022-09-11T16:12:26.641Z,2.77
2022-09-11T16:14:53.551Z,4.40
2022-09-11T16:17:21.982Z,5.13
2022-09-11T16:19:48.946Z,3.35
2022-09-11T16:22:15.906Z,3.00
2022-09-11T16:24:43.681Z,2.57
2022-09-11T16:27:11.217Z,2.63
2022-09-11T16:30:15.519Z,3.13
2022-09-11T16:32:29.345Z,3.20
2022-09-11T16:34:59.550Z,3.57
2022-09-11T16:37:28.332Z,3.57
2022-09-11T16:39:55.899Z,4.00
2022-09-11T16:42:22.896Z,3.70
2022-09-11T16:44:50.844Z,3.50
2022-09-11T16:47:18.481Z,3.50
2022-09-11T16:50:05.791Z,3.60
2022-09-11T16:52:34.939Z,3.13
2022-09-11T16:55:02.246Z,3.03
2022-09-11T16:57:30.391Z,3.23
2022-09-11T16:59:57.357Z,3.00
2022-09-11T17:02:24.346Z,2.90
2022-09-11T17:04:51.246Z,3.17
2022-09-11T17:07:18.746Z,2.87
2022-09-11T17:09:48.837Z,2.60
2022-09-11T17:12:18.016Z,3.20
2022-09-11T17:14:45.003Z,3.50
2022-09-11T17:17:11.970Z,3.97
2022-09-11T17:19:39.132Z,7.93
2022-09-11T17:22:06.821Z,11.70
2022-09-11T17:24:33.896Z,7.37
2022-09-11T17:27:02.236Z,6.20
2022-09-11T17:29:29.125Z,5.33
2022-09-11T17:32:16.762Z,5.13
2022-09-11T17:34:43.211Z,5.13
2022-09-11T17:37:10.290Z,10.63
2022-09-11T17:39:37.327Z,8.97
2022-09-11T17:42:11.083Z,7.53
2022-09-11T17:44:41.841Z,6.07
2022-09-11T17:47:09.453Z,6.00
2022-09-11T17:49:36.501Z,6.40
2022-09-11T17:52:03.934Z,6.63
2022-09-11T17:54:32.417Z,6.30
2022-09-11T17:56:59.296Z,6.47
2022-09-11T17:59:26.535Z,5.60
2022-09-11T18:01:53.493Z,6.27
2022-09-11T18:04:22.611Z,5.30
2022-09-11T18:06:50.812Z,6.27
2022-09-11T18:09:20.067Z,5.60
2022-09-11T18:11:50.640Z,6.43
2022-09-11T18:14:19.016Z,6.10
2022-09-11T18:16:48.033Z,6.30
2022-09-11T18:19:20.451Z,5.40
2022-09-11T18:21:50.553Z,6.07
2022-09-11T18:24:20.893Z,6.40
2022-09-11T18:26:51.753Z,5.60
2022-09-11T18:29:21.423Z,5.23
2022-09-11T18:31:53.663Z,6.20
2022-09-11T18:34:27.720Z,6.07
2022-09-11T18:36:55.395Z,5.80
2022-09-11T18:39:22.434Z,5.13
2022-09-11T18:41:53.133Z,5.20
2022-09-11T18:44:22.914Z,5.03
2022-09-11T18:46:54.543Z,4.50
2022-09-11T18:49:23.210Z,4.90
2022-09-11T18:51:50.934Z,5.30
2022-09-11T18:54:23.368Z,5.17
2022-09-11T18:56:51.296Z,5.13
2022-09-11T18:59:20.381Z,5.77
2022-09-11T19:01:47.816Z,6.37
2022-09-11T19:04:16.721Z,5.10
2022-09-11T19:06:45.440Z,5.40
2022-09-11T19:09:13.630Z,5.80
2022-09-11T19:11:41.670Z,6.10
2022-09-11T19:14:11.661Z,6.47
2022-09-11T19:16:39.742Z,5.50
2022-09-11T19:19:08.273Z,6.20
2022-09-11T19:21:36.416Z,7.30
2022-09-11T19:24:03.526Z,6.87
2022-09-11T19:26:39.051Z,6.30
2022-09-11T19:29:08.913Z,6.30
2022-09-11T19:31:40.042Z,7.47
2022-09-11T19:34:10.186Z,7.50
2022-09-11T19:36:37.123Z,7.33
2022-09-11T19:39:05.761Z,7.90
2022-09-11T19:41:37.534Z,8.00
2022-09-11T19:44:08.322Z,7.00
2022-09-11T19:46:37.551Z,7.17
2022-09-11T19:49:08.298Z,7.83
2022-09-11T19:51:41.496Z,8.87
2022-09-11T19:54:10.901Z,6.47
2022-09-11T19:56:38.766Z,6.40
2022-09-11T19:59:08.160Z,5.93
2022-09-11T20:01:35.256Z,5.03
2022-09-11T20:04:02.512Z,5.50
2022-09-11T20:06:32.395Z,4.43
2022-09-11T20:09:29.853Z,4.73
2022-09-11T20:11:48.241Z,4.83
2022-09-11T20:14:15.236Z,4.60
2022-09-11T20:16:42.223Z,4.30
2022-09-11T20:19:10.484Z,3.90
2022-09-11T20:21:37.911Z,3.70
2022-09-11T20:24:09.340Z,3.87
2022-09-11T20:26:36.657Z,2.80
2022-09-11T20:29:09.075Z,2.50
2022-09-11T20:31:46.503Z,2.70
2022-09-11T20:34:17.599Z,2.50
2022-09-11T20:36:45.042Z,2.20
2022-09-11T20:39:14.045Z,2.60
2022-09-11T20:41:41.449Z,1.80
2022-09-11T20:44:08.727Z,2.40
2022-09-11T20:46:35.886Z,1.80
2022-09-11T20:49:05.008Z,2.00
2022-09-11T20:51:34.786Z,2.20
2022-09-11T20:54:02.342Z,1.90
2022-09-11T20:56:29.354Z,2.10
2022-09-11T20:58:56.747Z,1.70
2022-09-11T21:01:27.073Z,1.80
2022-09-11T21:03:57.274Z,2.20
2022-09-11T21:06:29.521Z,1.93
2022-09-11T21:09:08.362Z,1.70
2022-09-11T21:11:36.522Z,2.10
2022-09-11T21:14:05.006Z,1.87
2022-09-11T21:16:32.675Z,1.70
2022-09-11T21:19:01.992Z,2.17
2022-09-11T21:21:30.594Z,2.10
2022-09-11T21:24:05.378Z,2.00
2022-09-11T21:26:34.361Z,2.67
2022-09-11T21:29:05.199Z,2.50
2022-09-11T21:31:33.662Z,2.77
2022-09-11T21:34:01.812Z,3.37
2022-09-11T21:36:29.108Z,3.10
2022-09-11T21:38:56.026Z,3.13
2022-09-11T21:41:23.191Z,3.47
2022-09-11T21:43:50.320Z,3.70
2022-09-11T21:46:17.351Z,3.13
2022-09-11T21:48:44.325Z,3.70
2022-09-11T21:51:18.727Z,3.80
2022-09-11T21:53:47.782Z,3.93
2022-09-11T21:56:25.496Z,4.10
2022-09-11T21:58:53.623Z,3.60
2022-09-11T22:01:22.518Z,3.70
2022-09-11T22:03:50.636Z,3.80
2022-09-11T22:06:18.206Z,4.13
2022-09-11T22:08:47.387Z,4.80
2022-09-11T22:11:16.181Z,4.77
2022-09-11T22:13:43.996Z,4.03
2022-09-11T22:16:15.947Z,4.10
2022-09-11T22:18:43.461Z,5.17
2022-09-11T22:21:11.365Z,4.90
2022-09-11T22:23:38.650Z,4.80
2022-09-11T22:26:13.080Z,4.97
2022-09-11T22:28:41.691Z,5.50
2022-09-11T22:31:12.121Z,5.27
2022-09-11T22:33:41.804Z,5.97
2022-09-11T22:36:18.074Z,6.17
2022-09-11T22:38:45.069Z,5.70
2022-09-11T22:41:12.174Z,8.35
2022-09-11T22:43:39.410Z,6.57
2022-09-11T22:46:06.607Z,7.30
2022-09-11T22:48:34.262Z,7.17
2022-09-11T22:51:01.309Z,7.40
2022-09-11T22:53:30.069Z,6.80
2022-09-11T22:55:57.033Z,6.83
2022-09-11T22:58:24.499Z,7.43
2022-09-11T23:00:55.107Z,6.30
2022-09-11T23:03:22.673Z,7.57
2022-09-11T23:06:17.366Z,6.97
2022-09-11T23:08:45.959Z,6.27
2022-09-11T23:11:15.448Z,7.50
2022-09-11T23:13:43.510Z,7.43
2022-09-11T23:16:15.931Z,6.13
2022-09-11T23:18:44.455Z,6.60
2022-09-11T23:21:13.448Z,7.17
2022-09-11T23:23:42.888Z,6.37
2022-09-11T23:26:13.596Z,6.73
2022-09-11T23:28:41.605Z,7.70
2022-09-11T23:31:30.739Z,7.40
2022-09-11T23:34:01.530Z,7.77
2022-09-11T23:36:30.969Z,7.87
2022-09-11T23:38:59.053Z,8.50
2022-09-11T23:41:26.779Z,8.67
2022-09-11T23:43:54.464Z,7.50
2022-09-11T23:46:22.074Z,9.00
2022-09-11T23:48:49.229Z,8.57
2022-09-11T23:51:17.084Z,9.20
2022-09-11T23:53:45.483Z,8.77
2022-09-11T23:56:17.175Z,8.73
2022-09-11T23:58:48.424Z,9.23
